Terminal Aerodrome Forecast
Issued by NWS

Home | Current Version | Previous Version | Text Only | Print | Product List | Glossary On
Versions: 1 2 3 4 5 6 7 8 9 10 11 12 13 14 15 16 17 18 19 20 21 22
000
FTUS42 KFFC 181100
TAFRYY
TAF
KRYY 181131Z 1812/1912 07009KT P6SM OVC070
     FM181400 08010KT P6SM -RA OVC040
     FM181600 07010KT P6SM -RA BKN025
     FM181800 06011G20KT 5SM SHRA OVC015
     FM182300 05014G24KT 4SM SHRA BR OVC008
     FM190200 05012G22KT 3SM SHRA BR OVC008=

USA.gov is the U.S. government's official web portal to all federal, state and local government web resources and services.